Time;durP1;ratioP1;P1;durP2;ratioP2;P2;SDS_P1;SDS_P2;PMS_P1;PMS_P2;Temp;Humidity;BMP_temperature;BMP_pressure;BME280_temperature;BME280_humidity;BME280_pressure;Samples;Min_cycle;Max_cycle;Signal;HPM_P1;HPM_P2
2023/04/06 00:00:04;;;;;;;;;25.67;22.33;;;;;12.10;63.66;101369.16;5080235;28;45294;-77
2023/04/06 00:02:29;;;;;;;;;26.00;25.33;;;;;12.06;64.34;101368.63;5062229;28;47091;-76
2023/04/06 00:04:55;;;;;;;;;24.00;24.00;;;;;11.95;63.80;101358.31;5080171;28;46000;-76
2023/04/06 00:07:20;;;;;;;;;28.67;23.33;;;;;11.89;64.15;101357.16;5080489;28;45321;-76
2023/04/06 00:09:46;;;;;;;;;25.67;25.67;;;;;11.90;64.41;101360.63;5080663;28;45336;-76
2023/04/06 00:12:11;;;;;;;;;25.33;25.33;;;;;11.82;64.18;101362.31;5080465;28;45335;-76
2023/04/06 00:14:36;;;;;;;;;24.33;22.33;;;;;11.80;64.50;101359.00;5062074;28;48076;-76
2023/04/06 00:17:02;;;;;;;;;26.33;23.67;;;;;11.72;64.88;101351.00;5062162;28;45342;-76
2023/04/06 00:19:27;;;;;;;;;22.67;22.33;;;;;11.73;64.83;101357.97;5080442;28;45410;-76
2023/04/06 00:21:52;;;;;;;;;18.33;18.33;;;;;11.57;64.26;101345.50;5080250;28;45390;-77
2023/04/06 00:24:18;;;;;;;;;24.33;23.33;;;;;11.66;66.11;101341.84;5080273;28;45983;-76
2023/04/06 00:26:43;;;;;;;;;26.67;23.33;;;;;11.54;66.23;101324.53;5062029;28;45450;-76
2023/04/06 00:29:09;;;;;;;;;27.00;25.00;;;;;11.58;65.83;101333.84;5080084;28;45401;-76
2023/04/06 00:31:34;;;;;;;;;23.33;21.00;;;;;11.60;65.47;101337.19;5080188;28;45333;-76
2023/04/06 00:34:00;;;;;;;;;23.00;22.00;;;;;11.57;66.59;101332.19;5079913;27;46129;-76
2023/04/06 00:36:25;;;;;;;;;24.50;23.50;;;;;11.54;66.80;101332.53;5078543;28;45604;-76
2023/04/06 00:38:51;;;;;;;;;24.00;23.00;;;;;11.54;67.98;101327.19;5080255;28;45394;-76
2023/04/06 00:41:17;;;;;;;;;24.67;23.67;;;;;11.43;68.69;101317.72;5080109;27;45435;-76
2023/04/06 00:43:43;;;;;;;;;21.67;20.67;;;;;11.39;67.71;101308.41;5080057;27;46411;-76
2023/04/06 00:46:08;;;;;;;;;27.00;26.33;;;;;11.44;68.28;101317.53;5079946;28;45191;-76
2023/04/06 00:48:33;;;;;;;;;28.33;23.00;;;;;11.41;68.66;101309.91;5079971;27;45234;-76
2023/04/06 00:51:00;;;;;;;;;25.33;23.33;;;;;11.49;67.96;101306.41;5079978;28;45220;-77
2023/04/06 00:53:26;;;;;;;;;21.33;21.33;;;;;11.54;68.24;101316.53;5079790;28;45355;-77
2023/04/06 00:55:51;;;;;;;;;26.00;24.00;;;;;11.57;67.99;101305.56;5079808;27;45367;-76
2023/04/06 00:58:16;;;;;;;;;26.50;22.00;;;;;11.53;68.98;101290.94;5079952;28;45385;-76
2023/04/06 01:00:42;;;;;;;;;20.00;18.67;;;;;11.69;68.69;101311.38;5079801;28;45655;-76
2023/04/06 01:03:07;;;;;;;;;25.33;22.67;;;;;11.67;68.35;101316.06;5078330;28;48514;-76
2023/04/06 01:05:40;;;;;;;;;23.33;20.33;;;;;11.64;69.37;101311.06;5078130;28;45342;-76
2023/04/06 01:08:06;;;;;;;;;21.67;20.00;;;;;11.59;68.60;101303.59;5078459;28;45386;-76
2023/04/06 01:10:32;;;;;;;;;24.33;22.33;;;;;11.45;68.01;101284.63;5078540;28;46530;-76
2023/04/06 01:12:57;;;;;;;;;22.33;20.67;;;;;11.58;67.64;101307.22;5081689;28;47074;-76
2023/04/06 01:15:24;;;;;;;;;17.67;17.67;;;;;11.48;68.63;101288.78;5083244;27;45294;-76
2023/04/06 01:17:49;;;;;;;;;21.33;19.00;;;;;11.54;68.67;101295.25;5082328;28;45379;-77
2023/04/06 01:20:15;;;;;;;;;27.00;24.00;;;;;11.57;68.47;101302.91;5082796;27;45378;-76
2023/04/06 01:22:40;;;;;;;;;23.67;21.00;;;;;11.55;68.31;101300.41;5083123;28;45319;-76
2023/04/06 01:25:06;;;;;;;;;23.00;21.67;;;;;11.53;70.10;101298.91;5083107;28;45362;-77
2023/04/06 01:27:31;;;;;;;;;24.67;24.33;;;;;11.57;70.27;101285.13;5083171;27;45331;-76
2023/04/06 01:29:57;;;;;;;;;23.00;22.67;;;;;11.55;70.13;101289.75;5070903;28;46972;-76
2023/04/06 01:32:22;;;;;;;;;25.67;22.00;;;;;11.61;71.32;101293.59;5083056;28;45967;-77
2023/04/06 01:34:48;;;;;;;;;23.33;21.33;;;;;11.53;72.39;101278.47;5064377;28;45260;-76
2023/04/06 01:37:13;;;;;;;;;27.33;25.33;;;;;11.48;73.24;101262.16;5082884;28;45202;-76
2023/04/06 01:39:38;;;;;;;;;27.67;24.33;;;;;11.61;71.62;101282.94;5064719;28;46256;-77
2023/04/06 01:42:04;;;;;;;;;26.33;24.00;;;;;11.59;71.10;101272.44;5082888;28;45621;-76
2023/04/06 01:44:30;;;;;;;;;20.33;18.33;;;;;11.56;71.77;101269.31;5082941;28;45303;-77
2023/04/06 01:46:56;;;;;;;;;27.00;25.33;;;;;11.55;71.66;101263.16;5082923;28;45316;-76
2023/04/06 01:49:21;;;;;;;;;28.33;26.00;;;;;11.61;70.84;101269.63;5082587;28;45760;-77
2023/04/06 01:51:47;;;;;;;;;23.67;22.33;;;;;11.57;70.78;101268.31;5082329;28;45321;-79
2023/04/06 01:54:12;;;;;;;;;24.67;23.00;;;;;11.65;70.50;101273.63;5064251;28;45900;-77
2023/04/06 01:56:37;;;;;;;;;23.67;22.00;;;;;11.57;70.45;101266.47;5082870;28;45401;-76
2023/04/06 01:59:03;;;;;;;;;19.33;18.00;;;;;11.53;71.81;101261.66;5064260;28;46076;-76
2023/04/06 02:01:28;;;;;;;;;25.67;21.67;;;;;11.49;72.11;101256.66;5082691;28;45420;-76
2023/04/06 02:03:54;;;;;;;;;22.67;22.67;;;;;11.57;71.46;101263.81;5064077;28;45315;-77
2023/04/06 02:06:19;;;;;;;;;24.33;21.33;;;;;11.65;72.17;101252.34;5082620;28;45304;-76
2023/04/06 02:08:44;;;;;;;;;22.67;22.00;;;;;11.70;71.13;101260.63;5082488;28;45516;-78
2023/04/06 02:11:10;;;;;;;;;27.67;25.67;;;;;11.68;71.26;101257.31;5082311;28;45314;-76
2023/04/06 02:13:35;;;;;;;;;26.00;25.33;;;;;11.66;71.49;101254.00;5082414;28;45280;-76
2023/04/06 02:16:02;;;;;;;;;23.00;23.00;;;;;11.69;71.78;101255.47;5082500;28;45797;-77
2023/04/06 02:18:28;;;;;;;;;24.67;23.67;;;;;11.69;72.18;101255.47;5063948;28;46269;-76
2023/04/06 02:20:53;;;;;;;;;24.33;24.00;;;;;11.66;72.40;101254.00;5082015;28;45585;-77
2023/04/06 02:23:19;;;;;;;;;19.00;18.00;;;;;11.70;72.88;101259.81;5062733;28;46355;-76
2023/04/06 02:25:44;;;;;;;;;23.00;22.67;;;;;11.64;72.57;101249.84;5082485;28;45290;-77
2023/04/06 02:28:10;;;;;;;;;23.33;23.33;;;;;11.66;73.19;101237.16;5081997;28;45299;-76
2023/04/06 02:30:35;;;;;;;;;24.67;22.67;;;;;11.57;73.56;101231.88;5081865;28;45378;-76
2023/04/06 02:33:01;;;;;;;;;23.33;21.00;;;;;11.61;73.20;101227.03;5082177;28;45349;-77
2023/04/06 02:35:28;;;;;;;;;26.67;22.67;;;;;11.64;72.40;101252.50;5063353;28;45357;-76
2023/04/06 02:37:54;;;;;;;;;23.00;19.67;;;;;11.62;72.70;101269.44;5081960;28;45372;-77
2023/04/06 02:40:19;;;;;;;;;24.00;22.33;;;;;11.58;72.76;101243.34;5063518;28;47440;-76
2023/04/06 02:42:44;;;;;;;;;22.67;19.33;;;;;11.71;73.64;101256.97;5082002;28;45378;-76
2023/04/06 02:45:10;;;;;;;;;23.00;20.00;;;;;11.60;74.28;101244.84;5063907;28;45488;-76
2023/04/06 02:47:35;;;;;;;;;21.67;19.67;;;;;11.63;74.20;101251.66;5063587;28;46396;-76
2023/04/06 02:50:01;;;;;;;;;22.67;21.67;;;;;11.57;74.31;101250.50;5081618;28;45365;-76
2023/04/06 02:52:26;;;;;;;;;24.67;21.33;;;;;11.65;73.61;101256.81;5081748;28;45224;-76
2023/04/06 02:54:52;;;;;;;;;18.67;17.67;;;;;11.52;74.55;101241.38;5081562;28;45221;-76
2023/04/06 02:57:17;;;;;;;;;21.33;16.00;;;;;11.57;76.26;101262.97;5063526;28;46855;-76
2023/04/06 02:59:43;;;;;;;;;22.33;21.33;;;;;11.58;75.83;101252.16;5063171;28;47076;-76
2023/04/06 03:02:08;;;;;;;;;22.67;19.67;;;;;11.59;75.64;101253.81;5081688;28;45170;-77
2023/04/06 03:04:33;;;;;;;;;19.67;15.00;;;;;11.54;77.28;101256.16;5081620;28;45207;-76
2023/04/06 03:06:59;;;;;;;;;27.33;23.67;;;;;11.49;77.26;101239.84;5063217;28;47027;-76
2023/04/06 03:09:24;;;;;;;;;23.33;20.33;;;;;11.48;77.13;101249.69;5063103;28;46930;-76
2023/04/06 03:11:49;;;;;;;;;23.33;23.33;;;;;11.50;78.06;101236.22;5081422;28;45228;-77
2023/04/06 03:14:17;;;;;;;;;21.00;19.33;;;;;11.44;77.68;101210.25;5081355;28;45347;-76
2023/04/06 03:16:42;;;;;;;;;30.33;25.00;;;;;11.52;78.08;101223.53;5081345;28;45365;-76
2023/04/06 03:19:07;;;;;;;;;25.67;24.33;;;;;11.51;78.03;101219.22;5080984;28;45871;-77
2023/04/06 03:21:33;;;;;;;;;24.33;23.00;;;;;11.46;76.76;101230.38;5063047;28;45956;-77
2023/04/06 03:23:58;;;;;;;;;28.00;26.67;;;;;11.44;76.18;101227.03;5081507;28;45357;-77
2023/04/06 03:26:23;;;;;;;;;22.67;21.67;;;;;11.51;75.04;101226.38;5081148;28;45476;-77
2023/04/06 03:28:49;;;;;;;;;26.67;26.67;;;;;11.52;75.18;101218.22;5080862;28;46082;-77
2023/04/06 03:31:14;;;;;;;;;26.33;26.00;;;;;11.55;74.91;101227.72;5079871;28;45525;-76
2023/04/06 03:33:40;;;;;;;;;25.00;22.00;;;;;11.58;75.41;101222.03;5080708;28;45327;-77
2023/04/06 03:36:06;;;;;;;;;28.67;26.33;;;;;11.59;76.09;101219.19;5080794;27;45365;-77
2023/04/06 03:38:32;;;;;;;;;30.33;28.67;;;;;11.57;76.33;101221.22;5079690;28;47264;-77
2023/04/06 03:40:57;;;;;;;;;29.33;27.00;;;;;11.51;77.10;101218.38;5081024;28;45207;-76
2023/04/06 03:43:22;;;;;;;;;23.33;23.33;;;;;11.56;78.00;101222.22;5081184;27;45226;-76
2023/04/06 03:45:48;;;;;;;;;28.67;25.33;;;;;11.53;77.25;101219.91;5079648;28;47328;-76
2023/04/06 03:48:13;;;;;;;;;26.33;25.33;;;;;11.46;75.76;101214.41;5079327;28;47016;-76
2023/04/06 03:50:38;;;;;;;;;30.67;27.67;;;;;11.44;77.00;101204.94;5080578;28;45320;-77
2023/04/06 03:53:03;;;;;;;;;25.00;24.33;;;;;11.41;77.63;101222.09;5081041;28;45231;-77
2023/04/06 03:55:29;;;;;;;;;28.33;27.00;;;;;11.48;76.60;101238.19;5079354;28;46158;-76
2023/04/06 03:57:55;;;;;;;;;26.00;24.25;;;;;11.40;76.95;101223.06;5080756;28;46070;-76
2023/04/06 04:00:20;;;;;;;;;26.67;25.67;;;;;11.40;77.63;101215.06;5080577;27;45492;-76
2023/04/06 04:02:46;;;;;;;;;28.00;26.33;;;;;11.44;78.13;101227.03;5079595;28;45410;-77
2023/04/06 04:05:11;;;;;;;;;24.67;22.33;;;;;11.43;78.66;101220.06;5078901;28;47613;-76
2023/04/06 04:07:36;;;;;;;;;33.50;28.50;;;;;11.52;79.65;101236.84;5080558;27;46274;-77
2023/04/06 04:10:02;;;;;;;;;31.33;27.00;;;;;11.51;79.94;101231.69;5082395;27;45276;-77
2023/04/06 04:12:27;;;;;;;;;25.33;23.00;;;;;11.50;79.78;101230.88;5044158;28;45407;-76
2023/04/06 04:14:53;;;;;;;;;28.00;25.33;;;;;11.41;79.65;101232.72;5059286;28;45368;-77
2023/04/06 04:17:18;;;;;;;;;30.33;28.67;;;;;11.85;77.95;101230.63;5059805;28;45414;-76
2023/04/06 04:19:43;;;;;;;;;25.00;24.33;;;;;11.49;79.42;101230.03;5059890;28;45315;-76
2023/04/06 04:22:09;;;;;;;;;31.75;28.00;;;;;11.47;80.02;101232.03;5059925;28;45312;-76
2023/04/06 04:24:34;;;;;;;;;29.00;27.00;;;;;11.50;80.02;101246.84;5041831;28;47364;-77
2023/04/06 04:27:02;;;;;;;;;28.00;27.00;;;;;11.47;80.71;101225.91;5059868;28;45507;-76
2023/04/06 04:29:28;;;;;;;;;26.33;25.00;;;;;11.51;80.87;101229.88;5069912;28;45381;-76
2023/04/06 04:31:53;;;;;;;;;35.00;27.33;;;;;11.57;80.47;101242.53;5080287;28;45220;-77
2023/04/06 04:34:24;;;;;;;;;28.33;23.67;;;;;11.56;80.93;101240.88;5080018;28;45227;-76
2023/04/06 04:36:50;;;;;;;;;27.67;26.00;;;;;11.77;79.78;101246.63;5079725;27;46200;-77
2023/04/06 04:39:15;;;;;;;;;27.00;24.33;;;;;11.80;80.03;101246.31;5080141;27;45169;-76
2023/04/06 04:41:41;;;;;;;;;24.00;24.00;;;;;11.72;80.21;101226.69;5080423;27;45245;-76
2023/04/06 04:44:06;;;;;;;;;26.33;24.67;;;;;11.79;81.01;101229.50;5078754;28;46085;-76
2023/04/06 04:46:31;;;;;;;;;29.33;28.33;;;;;11.76;80.93;101231.69;5079074;28;45224;-76
2023/04/06 04:48:56;;;;;;;;;25.33;23.33;;;;;11.77;80.37;101230.66;5079822;28;45294;-76
2023/04/06 04:51:22;;;;;;;;;29.67;27.67;;;;;11.82;80.80;101244.31;5078523;28;45323;-76
2023/04/06 04:53:47;;;;;;;;;28.00;27.33;;;;;11.80;81.38;101248.97;5079593;28;45164;-76
2023/04/06 04:56:12;;;;;;;;;28.00;26.67;;;;;11.78;81.83;101243.81;5065222;28;47579;-76
2023/04/06 04:58:38;;;;;;;;;27.67;26.00;;;;;11.82;81.76;101246.97;5061614;28;45236;-76
2023/04/06 05:01:03;;;;;;;;;27.33;27.33;;;;;11.72;82.01;101234.69;5061518;28;45303;-76
2023/04/06 05:03:29;;;;;;;;;27.33;26.67;;;;;11.79;83.32;101244.66;5073067;28;45515;-77
2023/04/06 05:05:55;;;;;;;;;28.33;26.67;;;;;11.78;83.04;101246.47;5067061;28;46164;-76
2023/04/06 05:08:20;;;;;;;;;28.00;26.33;;;;;11.75;83.07;101244.16;5061224;28;45574;-77
2023/04/06 05:10:46;;;;;;;;;35.50;33.00;;;;;11.78;82.94;101245.63;5059102;28;45455;-77
2023/04/06 05:13:12;;;;;;;;;29.33;28.00;;;;;11.79;83.26;101239.31;5058824;28;45443;-78
2023/04/06 05:15:38;;;;;;;;;30.00;26.33;;;;;11.91;83.42;101242.47;5059102;28;45348;-77
2023/04/06 05:18:04;;;;;;;;;27.67;27.33;;;;;11.92;82.50;101234.31;5058019;28;45322;-77
2023/04/06 05:20:29;;;;;;;;;28.00;27.00;;;;;11.85;82.82;101238.63;5059011;28;45366;-77
2023/04/06 05:22:55;;;;;;;;;28.67;27.00;;;;;11.73;83.82;101228.34;5059068;28;45374;-76
2023/04/06 05:25:21;;;;;;;;;24.67;24.67;;;;;11.64;85.23;101220.56;5040840;28;47409;-77
2023/04/06 05:27:46;;;;;;;;;24.00;23.00;;;;;11.71;84.64;101238.31;5058832;28;45212;-77
2023/04/06 05:30:11;;;;;;;;;33.33;28.00;;;;;11.67;85.82;101223.69;5075076;28;45449;-78
2023/04/06 05:32:37;;;;;;;;;32.00;27.67;;;;;11.75;85.82;101238.81;5079420;27;45228;-76
2023/04/06 05:35:02;;;;;;;;;34.00;31.00;;;;;11.72;85.24;101226.69;5079053;28;45650;-76
2023/04/06 05:37:28;;;;;;;;;29.00;27.33;;;;;11.71;85.18;101232.19;5079084;27;45249;-77
2023/04/06 05:39:53;;;;;;;;;28.67;28.67;;;;;11.70;86.95;101236.66;5079421;27;45227;-78
2023/04/06 05:42:18;;;;;;;;;29.00;27.00;;;;;11.71;86.29;101226.84;5079393;28;45310;-77
2023/04/06 05:44:43;;;;;;;;;29.33;28.33;;;;;11.66;85.71;101211.38;5079154;28;45207;-78
2023/04/06 05:47:09;;;;;;;;;29.00;28.67;;;;;11.83;85.76;101240.66;5079364;27;45254;-77
2023/04/06 05:49:35;;;;;;;;;33.00;29.00;;;;;11.78;84.84;101242.97;5078815;27;45172;-76
2023/04/06 05:52:00;;;;;;;;;30.00;27.00;;;;;11.83;84.75;101257.44;5079229;28;45554;-77
2023/04/06 05:54:26;;;;;;;;;39.67;33.67;;;;;11.76;84.24;101247.66;5079161;27;46025;-76
2023/04/06 05:56:51;;;;;;;;;38.33;33.33;;;;;11.83;83.97;101267.28;5079762;28;45277;-76
2023/04/06 05:59:17;;;;;;;;;35.67;31.33;;;;;11.79;85.63;101260.63;5082713;28;45386;-75
2023/04/06 06:01:42;;;;;;;;;37.00;31.50;;;;;11.77;86.98;101262.63;5082442;28;45411;-76
2023/04/06 06:04:07;;;;;;;;;33.67;30.33;;;;;11.83;86.71;101261.94;5080943;28;47028;-76
2023/04/06 06:06:33;;;;;;;;;37.25;33.25;;;;;11.89;87.53;101271.94;5082348;28;45377;-76
2023/04/06 06:09:00;;;;;;;;;33.00;30.33;;;;;11.90;88.99;101272.75;5082729;27;45939;-77
2023/04/06 06:11:26;;;;;;;;;40.00;34.25;;;;;11.85;90.54;101270.59;5059250;28;46136;-76
2023/04/06 06:13:51;;;;;;;;;39.25;34.50;;;;;11.77;91.35;101259.97;5070197;28;45268;-76
2023/04/06 06:16:17;;;;;;;;;37.75;33.00;;;;;11.87;90.81;101269.44;5072231;28;45357;-76
2023/04/06 06:18:43;;;;;;;;;29.67;29.33;;;;;11.87;91.64;101273.91;5063363;28;45389;-76
2023/04/06 06:21:09;;;;;;;;;35.67;32.33;;;;;11.82;92.68;101261.09;5061636;28;45595;-76
2023/04/06 06:23:34;;;;;;;;;35.50;33.75;;;;;11.90;93.18;101273.59;5061939;28;45385;-76
2023/04/06 06:26:00;;;;;;;;;35.75;33.25;;;;;11.88;93.66;101278.22;5061896;28;45304;-76
2023/04/06 06:28:26;;;;;;;;;31.00;30.75;;;;;11.91;94.56;101282.41;5063042;28;45402;-76
2023/04/06 06:30:51;;;;;;;;;31.50;31.25;;;;;11.83;95.00;101272.59;5080709;28;45805;-76
2023/04/06 06:33:17;;;;;;;;;30.67;30.33;;;;;11.83;95.07;101277.94;5081849;27;46483;-76
2023/04/06 06:35:42;;;;;;;;;32.50;30.75;;;;;11.83;95.78;101272.59;5081712;27;46060;-76
2023/04/06 06:38:08;;;;;;;;;32.25;30.75;;;;;11.82;97.57;101271.75;5082266;27;45369;-76
2023/04/06 06:40:33;;;;;;;;;34.25;32.00;;;;;11.83;98.36;101269.94;5081875;27;45374;-77
2023/04/06 06:42:59;;;;;;;;;38.25;31.50;;;;;11.91;97.33;101277.91;5081886;27;46296;-76
2023/04/06 06:45:25;;;;;;;;;35.50;30.75;;;;;11.94;98.32;101288.22;5081823;27;45333;-79
2023/04/06 06:47:50;;;;;;;;;30.75;27.25;;;;;11.95;99.01;101273.06;5082283;27;45306;-79
2023/04/06 06:50:16;;;;;;;;;32.50;31.00;;;;;12.03;100.00;101275.69;5080209;28;46186;-78
2023/04/06 06:52:42;;;;;;;;;33.75;31.00;;;;;12.03;100.00;101266.91;5080395;28;46943;-78
2023/04/06 06:55:08;;;;;;;;;37.75;33.75;;;;;12.05;100.00;101268.38;5080271;28;45854;-78
2023/04/06 06:57:34;;;;;;;;;34.25;29.50;;;;;12.06;100.00;101264.72;5081906;27;45303;-78
2023/04/06 06:59:59;;;;;;;;;35.50;31.75;;;;;12.14;98.51;101273.69;5080409;28;46126;-78
2023/04/06 07:02:25;;;;;;;;;33.00;29.75;;;;;12.11;99.16;101267.72;5081693;27;45349;-77
2023/04/06 07:04:50;;;;;;;;;35.50;33.00;;;;;12.15;100.00;101259.41;5079947;28;45334;-78
2023/04/06 07:07:16;;;;;;;;;33.00;31.75;;;;;12.22;100.00;101265.69;5080278;28;45392;-80
2023/04/06 07:09:41;;;;;;;;;32.33;30.67;;;;;12.23;100.00;101270.00;5077662;28;45419;-77
2023/04/06 07:12:06;;;;;;;;;32.67;29.67;;;;;12.23;100.00;101264.69;5064243;28;45338;-77
2023/04/06 07:14:32;;;;;;;;;33.67;31.00;;;;;12.28;100.00;101253.50;5061069;28;45379;-77
2023/04/06 07:16:57;;;;;;;;;29.00;28.00;;;;;12.29;100.00;101264.00;5060291;28;45533;-76
2023/04/06 07:19:22;;;;;;;;;32.00;29.75;;;;;12.30;100.00;101259.50;5065961;28;45496;-79
2023/04/06 07:21:49;;;;;;;;;33.50;31.50;;;;;12.39;100.00;101262.97;5050682;28;48184;-78
2023/04/06 07:24:15;;;;;;;;;36.00;31.00;;;;;12.39;100.00;101260.31;5060990;28;45392;-77
2023/04/06 07:26:40;;;;;;;;;40.50;35.75;;;;;12.40;100.00;101253.97;5060841;28;45301;-77
2023/04/06 07:29:05;;;;;;;;;45.50;37.75;;;;;12.47;99.50;101263.75;5052028;28;46544;-77
2023/04/06 07:31:31;;;;;;;;;45.25;37.75;;;;;12.36;100.00;101245.47;5080537;28;46104;-77
2023/04/06 07:33:56;;;;;;;;;55.75;45.75;;;;;12.47;100.00;101266.44;5074472;28;45459;-80
2023/04/06 07:36:22;;;;;;;;;54.25;45.00;;;;;12.45;100.00;101268.44;5080230;28;45260;-78
2023/04/06 07:38:48;;;;;;;;;53.00;44.00;;;;;12.47;100.00;101254.91;5080482;28;45237;-79
2023/04/06 07:41:14;;;;;;;;;52.50;43.00;;;;;12.52;100.00;101265.91;5080769;28;45600;-77
2023/04/06 07:43:39;;;;;;;;;48.50;40.00;;;;;12.59;100.00;101271.34;5080059;28;45220;-78
2023/04/06 07:46:04;;;;;;;;;43.75;37.75;;;;;12.61;100.00;101272.03;5080910;28;45796;-78
2023/04/06 07:48:30;;;;;;;;;49.25;40.75;;;;;12.60;100.00;101262.38;5080554;28;45327;-78
2023/04/06 07:51:04;;;;;;;;;50.00;41.75;;;;;12.59;100.00;101255.34;5080674;27;45339;-78
2023/04/06 07:53:30;;;;;;;;;53.00;44.50;;;;;12.80;100.00;101262.75;5079585;28;45380;-77
2023/04/06 07:55:57;;;;;;;;;47.50;39.00;;;;;12.77;100.00;101249.75;5080885;27;45397;-78
2023/04/06 07:58:22;;;;;;;;;43.75;36.50;;;;;12.84;100.00;101256.03;5079444;28;46659;-77
2023/04/06 08:00:48;;;;;;;;;35.00;32.00;;;;;12.81;100.00;101250.25;5079207;28;47003;-77
2023/04/06 08:03:13;;;;;;;;;36.00;30.00;;;;;12.77;100.00;101236.41;5079237;28;46049;-78
2023/04/06 08:05:38;;;;;;;;;39.33;34.33;;;;;12.87;100.00;101254.88;5080674;28;45326;-77
2023/04/06 08:08:04;;;;;;;;;34.67;32.00;;;;;12.79;100.00;101246.91;5079290;28;47188;-79
2023/04/06 08:10:29;;;;;;;;;46.25;39.50;;;;;12.91;100.00;101252.66;5080624;28;45509;-80
2023/04/06 08:12:55;;;;;;;;;44.00;38.50;;;;;12.92;100.00;101265.84;5080464;28;45306;-78
2023/04/06 08:15:20;;;;;;;;;50.50;42.75;;;;;12.90;100.00;101259.03;5080527;28;45307;-79
2023/04/06 08:17:45;;;;;;;;;36.75;33.00;;;;;12.95;100.00;101256.63;5080464;28;45397;-79
2023/04/06 08:20:11;;;;;;;;;33.00;31.00;;;;;12.94;100.00;101255.84;5080110;27;45254;-79
2023/04/06 08:22:36;;;;;;;;;34.67;31.33;;;;;12.99;100.00;101263.31;5074428;28;45342;-78
2023/04/06 08:25:01;;;;;;;;;34.33;32.67;;;;;13.05;100.00;101251.91;5077042;28;45406;-78
2023/04/06 08:27:27;;;;;;;;;39.00;32.67;;;;;13.15;100.00;101246.34;5079191;28;45338;-77
2023/04/06 08:29:52;;;;;;;;;40.00;35.67;;;;;13.22;100.00;101241.09;5079773;28;45334;-79
2023/04/06 08:32:17;;;;;;;;;39.67;35.33;;;;;13.37;100.00;101247.31;5075681;28;45221;-77
2023/04/06 08:34:43;;;;;;;;;34.75;32.75;;;;;13.54;100.00;101252.53;5079221;28;45434;-78
2023/04/06 08:37:08;;;;;;;;;38.67;34.00;;;;;13.58;100.00;101250.31;5061296;28;46442;-78
2023/04/06 08:39:33;;;;;;;;;41.75;34.75;;;;;13.66;100.00;101242.25;5079489;28;46112;-79
2023/04/06 08:42:02;;;;;;;;;36.33;31.67;;;;;13.68;100.00;101237.53;5061536;28;45610;-77
2023/04/06 08:44:29;;;;;;;;;38.00;34.00;;;;;13.72;100.00;101248.69;5041616;28;45421;-77
2023/04/06 08:46:55;;;;;;;;;39.00;34.00;;;;;13.75;100.00;101254.50;5059432;28;45422;-78
2023/04/06 08:49:21;;;;;;;;;36.33;33.00;;;;;13.86;100.00;101261.22;5060488;28;47164;-78
2023/04/06 08:51:47;;;;;;;;;36.00;32.67;;;;;13.83;100.00;101258.91;5079401;28;45174;-76
2023/04/06 08:54:12;;;;;;;;;36.33;32.67;;;;;13.94;100.00;101259.47;5079603;28;45426;-78
2023/04/06 08:56:39;;;;;;;;;31.33;30.00;;;;;13.96;100.00;101273.50;5079701;27;45252;-76
2023/04/06 08:59:06;;;;;;;;;34.33;31.33;;;;;13.98;100.00;101269.63;5079280;27;45623;-76
2023/04/06 09:01:36;;;;;;;;;36.33;30.67;;;;;13.97;100.00;101272.47;5078189;28;46019;-76
2023/04/06 09:04:05;;;;;;;;;34.67;31.00;;;;;13.80;100.00;101258.47;5079247;28;45276;-76
2023/04/06 09:06:31;;;;;;;;;36.67;32.00;;;;;13.74;100.00;101262.72;5077921;28;46204;-76
2023/04/06 09:08:57;;;;;;;;;41.00;33.67;;;;;13.70;100.00;101266.72;5079147;28;46025;-77
2023/04/06 09:11:23;;;;;;;;;33.33;32.00;;;;;13.71;100.00;101276.44;5078403;28;45348;-76
2023/04/06 09:13:54;;;;;;;;;32.33;30.00;;;;;13.66;100.00;101286.81;5079325;27;45393;-76
2023/04/06 09:16:20;;;;;;;;;34.33;32.33;;;;;13.62;100.00;101276.50;5079363;28;45426;-76
2023/04/06 09:18:46;;;;;;;;;45.00;36.00;;;;;13.61;100.00;101282.00;5077706;28;45373;-76
2023/04/06 09:21:12;;;;;;;;;43.00;37.00;;;;;13.68;100.00;101288.28;5078141;28;45418;-76
2023/04/06 09:23:38;;;;;;;;;39.67;35.00;;;;;13.73;100.00;101277.91;5079187;28;45464;-77
2023/04/06 09:26:10;;;;;;;;;46.75;38.00;;;;;13.86;100.00;101277.25;5078900;28;45419;-77
2023/04/06 09:28:53;;;;;;;;;44.33;38.33;;;;;13.79;100.00;101262.13;5078846;28;45400;-77
2023/04/06 09:31:26;;;;;;;;;43.33;36.33;;;;;13.86;100.00;101271.09;5060869;28;45296;-78
2023/04/06 09:33:53;;;;;;;;;45.00;38.00;;;;;13.78;100.00;101269.34;5082532;28;45309;-77
2023/04/06 09:36:19;;;;;;;;;42.75;36.75;;;;;13.81;100.00;101274.31;5082552;28;45580;-77
2023/04/06 09:39:01;;;;;;;;;43.75;36.50;;;;;13.85;100.00;101267.59;5064291;28;48464;-77
2023/04/06 09:41:29;;;;;;;;;44.50;38.00;;;;;13.85;100.00;101261.41;5073784;28;45240;-77
2023/04/06 09:44:09;;;;;;;;;46.75;38.00;;;;;13.82;100.00;101257.25;5064474;28;45387;-77
2023/04/06 09:46:37;;;;;;;;;48.00;39.67;;;;;13.82;100.00;101256.44;5082940;28;45497;-78
2023/04/06 09:49:04;;;;;;;;;48.75;40.00;;;;;13.93;100.00;101264.00;5063925;28;47709;-77
2023/04/06 09:51:37;;;;;;;;;40.67;36.00;;;;;14.03;100.00;101265.59;5082655;28;45325;-78
2023/04/06 09:54:04;;;;;;;;;45.25;37.50;;;;;13.99;100.00;101273.97;5064514;28;45252;-78
2023/04/06 09:56:55;;;;;;;;;45.00;38.00;;;;;14.06;100.00;101282.06;5064179;28;47127;-76
2023/04/06 09:59:31;;;;;;;;;35.67;32.67;;;;;14.01;100.00;101287.94;5064181;28;48786;-77
2023/04/06 10:01:58;;;;;;;;;38.00;33.00;;;;;13.99;100.00;101284.66;5082363;28;45332;-78
2023/04/06 10:04:49;;;;;;;;;41.67;36.00;;;;;13.89;100.00;101273.41;5082043;28;45331;-78
2023/04/06 10:07:15;;;;;;;;;37.67;33.33;;;;;13.85;100.00;101280.09;5081831;28;45531;-80
2023/04/06 10:09:45;;;;;;;;;37.00;33.00;;;;;13.84;100.00;101268.59;5080779;28;48161;-80
2023/04/06 10:12:12;;;;;;;;;38.67;34.67;;;;;13.87;100.00;101267.41;5082413;28;45411;-79
2023/04/06 10:14:39;;;;;;;;;42.00;35.00;;;;;14.01;100.00;101263.91;5081044;28;45346;-79
2023/04/06 10:17:04;;;;;;;;;37.33;33.67;;;;;14.09;100.00;101270.16;5063840;28;46436;-80
2023/04/06 10:19:36;;;;;;;;;31.33;30.00;;;;;14.13;100.00;101288.31;5063393;28;46942;-80
2023/04/06 10:22:05;;;;;;;;;38.00;32.00;;;;;14.01;100.00;101274.59;5064091;28;45348;-77
2023/04/06 10:24:30;;;;;;;;;38.67;34.00;;;;;14.04;100.00;101289.44;5082284;28;45355;-79
2023/04/06 10:27:01;;;;;;;;;38.00;34.67;;;;;14.04;100.00;101286.78;5063852;28;45979;-79
2023/04/06 10:29:27;;;;;;;;;39.00;35.00;;;;;14.04;100.00;101283.25;5081973;28;46003;-79
2023/04/06 10:31:52;;;;;;;;;29.33;27.33;;;;;14.06;100.00;101278.53;5082063;28;45402;-79
2023/04/06 10:34:17;;;;;;;;;36.67;33.00;;;;;14.05;100.00;101283.09;5082148;27;45330;-78
2023/04/06 10:36:43;;;;;;;;;37.33;33.00;;;;;13.96;100.00;101271.66;5080576;28;47389;-78
2023/04/06 10:39:08;;;;;;;;;34.00;31.00;;;;;13.92;100.00;101273.00;5082858;27;45307;-78
2023/04/06 10:41:44;;;;;;;;;32.00;30.00;;;;;14.01;100.00;101279.13;5081926;28;45342;-77
2023/04/06 10:44:24;;;;;;;;;27.67;25.00;;;;;13.93;100.00;101279.19;5080893;28;45342;-78
2023/04/06 10:46:57;;;;;;;;;31.67;28.00;;;;;13.92;100.00;101280.22;5081727;28;45448;-78
2023/04/06 10:49:25;;;;;;;;;34.67;30.00;;;;;13.83;100.00;101279.47;5081563;28;45318;-80
2023/04/06 10:51:54;;;;;;;;;29.00;27.33;;;;;13.86;100.00;101289.81;5080102;28;46108;-79
2023/04/06 10:54:26;;;;;;;;;29.00;27.00;;;;;13.91;100.00;101290.06;5080552;28;45334;-79
2023/04/06 10:56:51;;;;;;;;;34.00;30.67;;;;;13.83;100.00;101280.28;5081578;28;45350;-78
2023/04/06 10:59:21;;;;;;;;;29.67;29.00;;;;;13.78;100.00;101274.69;5081517;28;45461;-77
2023/04/06 11:01:46;;;;;;;;;38.67;33.00;;;;;13.89;100.00;101286.78;5074059;28;45496;-79